Time;durP1;ratioP1;P1;durP2;ratioP2;P2;SDS_P1;SDS_P2;PMS_P1;PMS_P2;Temp;Humidity;BMP_temperature;BMP_pressure;BME280_temperature;BME280_humidity;BME280_pressure;Samples;Min_cycle;Max_cycle;Signal;HPM_P1;HPM_P2
2021/12/03 00:00:36;;;;;;;9.57;1.75;;;0.70;99.90;;;;;;5034498;28;20056;-74
2021/12/03 00:03:04;;;;;;;9.85;1.80;;;0.50;99.90;;;;;;5047326;28;20142;-73
2021/12/03 00:05:30;;;;;;;10.65;2.38;;;;;;;;;;5037904;28;20050;-74
2021/12/03 00:07:57;;;;;;;5.55;1.70;;;;;;;;;;5037900;28;20505;-74
2021/12/03 00:10:25;;;;;;;7.93;1.48;;;;;;;;;;5022839;28;20454;-74
2021/12/03 00:12:53;;;;;;;8.13;1.60;;;0.50;99.90;;;;;;5044405;28;20048;-73
2021/12/03 00:15:20;;;;;;;6.75;1.70;;;;;;;;;;5041391;28;20047;-73
2021/12/03 00:17:46;;;;;;;9.10;1.77;;;;;;;;;;5043590;28;20073;-73
2021/12/03 00:20:14;;;;;;;5.53;1.65;;;;;;;;;;5019547;28;20057;-73
2021/12/03 00:22:43;;;;;;;7.57;2.10;;;0.60;99.90;;;;;;5019311;28;20529;-74
2021/12/03 00:25:09;;;;;;;8.20;1.75;;;;;;;;;;5038246;28;20044;-73
2021/12/03 00:27:35;;;;;;;9.98;1.80;;;;;;;;;;5024752;28;20128;-74
2021/12/03 00:30:01;;;;;;;6.65;1.80;;;;;;;;;;5015710;28;20037;-74
2021/12/03 00:32:27;;;;;;;8.00;2.20;;;;;;;;;;5033456;28;20139;-74
2021/12/03 00:34:55;;;;;;;8.35;2.15;;;0.70;99.90;;;;;;5038623;28;20041;-74
2021/12/03 00:37:21;;;;;;;10.13;1.77;;;;;;;;;;5027496;28;20037;-74
2021/12/03 00:39:47;;;;;;;5.80;1.60;;;;;;;;;;5033324;28;20044;-74
2021/12/03 00:42:16;;;;;;;5.57;1.40;;;;;;;;;;5038263;28;20598;-74
2021/12/03 00:44:44;;;;;;;6.13;1.50;;;;;;;;;;5042405;28;20041;-74
2021/12/03 00:47:11;;;;;;;6.35;1.63;;;;;;;;;;5023049;28;20428;-74
2021/12/03 00:49:39;;;;;;;6.32;1.73;;;;;;;;;;5036836;28;20525;-73
2021/12/03 00:52:06;;;;;;;7.82;1.70;;;0.60;99.90;;;;;;5025793;28;20032;-74
2021/12/03 00:54:32;;;;;;;4.70;1.80;;;;;;;;;;5035265;28;20047;-73
2021/12/03 00:56:58;;;;;;;9.48;1.73;;;;;;;;;;5020546;28;20061;-74
2021/12/03 00:59:24;;;;;;;4.38;1.83;;;;;;;;;;5038213;28;20147;-74
2021/12/03 01:01:50;;;;;;;14.35;1.70;;;;;;;;;;5038420;28;20122;-74
2021/12/03 01:04:16;;;;;;;9.18;1.75;;;;;;;;;;5020911;28;20097;-73
2021/12/03 01:06:43;;;;;;;6.85;1.70;;;;;;;;;;5037834;28;20133;-74
2021/12/03 01:09:09;;;;;;;11.48;1.67;;;;;;;;;;5019080;28;20151;-74
2021/12/03 01:11:35;;;;;;;7.25;1.50;;;;;;;;;;5022652;28;20048;-74
2021/12/03 01:14:01;;;;;;;8.98;1.70;;;;;;;;;;5032173;28;20037;-74
2021/12/03 01:16:30;;;;;;;6.18;1.83;;;;;;;;;;5021093;28;20048;-74
2021/12/03 01:18:56;;;;;;;7.20;1.38;;;;;;;;;;5036017;28;20048;-74
2021/12/03 01:21:23;;;;;;;10.95;1.70;;;;;;;;;;5029856;28;20094;-73
2021/12/03 01:23:49;;;;;;;5.63;2.10;;;0.90;99.90;;;;;;5021363;28;20044;-74
2021/12/03 01:26:15;;;;;;;7.88;2.42;;;;;;;;;;5017616;28;20438;-74
2021/12/03 01:28:42;;;;;;;9.10;1.42;;;;;;;;;;5033113;28;20040;-74
2021/12/03 01:31:08;;;;;;;9.18;1.70;;;;;;;;;;5033075;28;20092;-74
2021/12/03 01:33:34;;;;;;;5.72;1.20;;;;;;;;;;5029168;28;20296;-74
2021/12/03 01:36:03;;;;;;;7.78;1.65;;;1.00;99.90;;;;;;5038685;28;20405;-74
2021/12/03 01:38:30;;;;;;;5.30;1.38;;;1.20;99.90;;;;;;5019456;28;20155;-74
2021/12/03 01:40:57;;;;;;;3.50;1.40;;;1.00;99.90;;;;;;5034008;28;20048;-73
2021/12/03 01:43:25;;;;;;;7.90;1.15;;;;;;;;;;5018607;28;20041;-74
2021/12/03 01:45:57;;;;;;;5.95;1.50;;;1.10;99.90;;;;;;5036217;28;20059;-74
2021/12/03 01:48:23;;;;;;;6.75;1.33;;;;;;;;;;5033903;28;20094;-73
2021/12/03 01:50:49;;;;;;;5.00;2.08;;;;;;;;;;5034410;28;20150;-74
2021/12/03 01:53:18;;;;;;;7.07;1.20;;;1.00;99.90;;;;;;5041414;28;20524;-74
2021/12/03 01:55:50;;;;;;;6.50;1.67;;;1.20;99.90;;;;;;5034539;28;20127;-74
2021/12/03 01:58:16;;;;;;;;;;;;;;;;;;5014873;28;20076;-73
2021/12/03 02:00:53;;;;;;;4.13;1.15;;;1.10;99.90;;;;;;5022070;28;19972;-74
2021/12/03 02:03:21;;;;;;;7.68;1.55;;;1.10;99.90;;;;;;5041262;28;20040;-73
2021/12/03 02:05:47;;;;;;;7.13;1.40;;;;;;;;;;5018566;28;20064;-74
2021/12/03 02:08:13;;;;;;;6.30;1.50;;;;;;;;;;5036788;28;20040;-73
2021/12/03 02:10:40;;;;;;;7.30;1.40;;;;;;;;;;5036134;28;20449;-74
2021/12/03 02:13:06;;;;;;;6.93;1.70;;;;;;;;;;5027352;28;20033;-74
2021/12/03 02:15:34;;;;;;;8.20;2.05;;;0.90;99.90;;;;;;5018121;28;20060;-73
2021/12/03 02:18:00;;;;;;;9.13;1.38;;;;;;;;;;5034836;28;20068;-74
2021/12/03 02:20:26;;;;;;;5.18;1.60;;;;;;;;;;5033808;28;20056;-74
2021/12/03 02:22:52;;;;;;;12.63;1.52;;;;;;;;;;5020457;28;20066;-74
2021/12/03 02:25:22;;;;;;;6.05;1.52;;;1.00;99.90;;;;;;5035297;28;20111;-73
2021/12/03 02:27:52;;;;;;;9.38;1.80;;;1.10;99.90;;;;;;5041054;28;20559;-74
2021/12/03 02:30:19;;;;;;;6.07;1.15;;;1.20;99.90;;;;;;5040546;28;20520;-74
2021/12/03 02:32:46;;;;;;;7.45;1.70;;;;;;;;;;5039474;28;20413;-75
2021/12/03 02:35:14;;;;;;;8.85;2.53;;;1.30;99.90;;;;;;5037132;28;20383;-74
2021/12/03 02:37:40;;;;;;;6.13;1.90;;;;;;;;;;5028028;28;20555;-73
2021/12/03 02:40:07;;;;;;;10.32;2.10;;;1.30;99.90;;;;;;5039308;28;20033;-74
2021/12/03 02:42:33;;;;;;;9.25;1.70;;;;;;;;;;5021493;28;20130;-74
2021/12/03 02:45:03;;;;;;;5.25;1.42;;;1.30;99.90;;;;;;5034424;28;20557;-74
2021/12/03 02:47:29;;;;;;;8.57;2.00;;;;;;;;;;5020038;28;20033;-74
2021/12/03 02:49:55;;;;;;;4.82;1.30;;;;;;;;;;5031853;28;20045;-74
2021/12/03 02:52:22;;;;;;;7.85;1.80;;;1.20;99.90;;;;;;5013506;28;20375;-74
2021/12/03 02:54:48;;;;;;;9.35;1.90;;;;;;;;;;5030981;28;20040;-74
2021/12/03 02:57:15;;;;;;;12.90;1.88;;;;;;;;;;5020618;28;20405;-74
2021/12/03 02:59:46;;;;;;;13.68;2.25;;;;;;;;;;5034747;28;20808;-74
2021/12/03 03:02:12;;;;;;;7.85;3.00;;;;;;;;;;5029254;28;20392;-74
2021/12/03 03:04:38;;;;;;;10.52;2.90;;;;;;;;;;5036369;28;20037;-74
2021/12/03 03:07:05;;;;;;;9.00;2.90;;;;;;;;;;5019600;28;20055;-74
2021/12/03 03:09:31;;;;;;;10.27;3.47;;;;;;;;;;5039405;28;20052;-74
2021/12/03 03:11:58;;;;;;;18.05;3.38;;;1.60;99.90;;;;;;5044294;28;20543;-74
2021/12/03 03:14:25;;;;;;;6.47;3.30;;;;;;;;;;5019386;28;20059;-74
2021/12/03 03:16:51;;;;;;;13.07;4.13;;;;;;;;;;5025794;28;20036;-74
2021/12/03 03:19:20;;;;;;;12.52;3.42;;;1.60;99.90;;;;;;5021212;28;20048;-74
2021/12/03 03:21:47;;;;;;;10.80;3.88;;;1.50;99.90;;;;;;5035965;28;20127;-74
2021/12/03 03:24:16;;;;;;;10.63;4.50;;;1.50;99.90;;;;;;5038173;28;20044;-74
2021/12/03 03:26:47;;;;;;;12.15;4.32;;;1.60;99.90;;;;;;5038000;28;20115;-74
2021/12/03 03:29:17;;;;;;;14.93;5.15;;;1.60;99.90;;;;;;5040549;28;20123;-74
2021/12/03 03:31:44;;;;;;;10.35;5.88;;;1.50;99.90;;;;;;5042159;28;20109;-74
2021/12/03 03:34:10;;;;;;;19.42;6.40;;;;;;;;;;5021134;28;20586;-74
2021/12/03 03:36:39;;;;;;;19.00;7.63;;;1.60;99.90;;;;;;5013209;28;20042;-74
2021/12/03 03:39:10;;;;;;;13.82;8.27;;;1.60;99.90;;;;;;5035344;28;20056;-73
2021/12/03 03:41:36;;;;;;;18.70;10.20;;;;;;;;;;5034272;28;20143;-74
2021/12/03 03:44:03;;;;;;;18.90;11.45;;;1.50;99.90;;;;;;5019947;28;20037;-74
2021/12/03 03:46:29;;;;;;;18.00;11.10;;;;;;;;;;5042544;28;20139;-74
2021/12/03 03:48:56;;;;;;;21.27;12.13;;;;;;;;;;5021685;28;20048;-74
2021/12/03 03:51:22;;;;;;;22.33;13.63;;;;;;;;;;5041978;28;20091;-74
2021/12/03 03:53:48;;;;;;;23.10;14.75;;;;;;;;;;5024732;28;20041;-74
2021/12/03 03:56:17;;;;;;;27.83;16.63;;;;;;;;;;5035902;28;20840;-74
2021/12/03 03:58:43;;;;;;;26.35;16.95;;;;;;;;;;5034591;28;20053;-74
2021/12/03 04:01:11;;;;;;;25.73;16.63;;;1.60;99.90;;;;;;5036219;28;20340;-74
2021/12/03 04:03:37;;;;;;;29.40;17.83;;;1.60;99.90;;;;;;5039806;28;20048;-73
2021/12/03 04:06:05;;;;;;;34.38;19.90;;;1.60;99.90;;;;;;5023219;28;20033;-74
2021/12/03 04:08:31;;;;;;;30.63;21.58;;;;;;;;;;5018822;28;20049;-74
2021/12/03 04:10:58;;;;;;;31.95;19.73;;;;;;;;;;5018351;28;20505;-74
2021/12/03 04:13:26;;;;;;;31.23;21.20;;;1.50;99.90;;;;;;5015203;28;20060;-74
2021/12/03 04:15:53;;;;;;;29.55;21.02;;;;;;;;;;5032384;28;20410;-74
2021/12/03 04:18:19;;;;;;;33.65;20.52;;;;;;;;;;5038324;28;20395;-74
2021/12/03 04:20:45;;;;;;;33.47;21.88;;;;;;;;;;5040346;28;20121;-74
2021/12/03 04:23:16;;;;;;;31.70;20.75;;;;;;;;;;5038165;28;20042;-74
2021/12/03 04:25:42;;;;;;;31.48;20.85;;;;;;;;;;5022624;28;20045;-74
2021/12/03 04:28:10;;;;;;;30.42;21.63;;;1.30;99.90;;;;;;5037716;28;20431;-74
2021/12/03 04:30:36;;;;;;;28.00;19.80;;;;;;;;;;5020389;28;20613;-74
2021/12/03 04:33:02;;;;;;;28.35;19.73;;;1.50;99.90;;;;;;5030835;28;20477;-74
2021/12/03 04:35:29;;;;;;;29.55;19.58;;;;;;;;;;5021943;28;20398;-74
2021/12/03 04:37:57;;;;;;;28.35;19.88;;;1.40;99.90;;;;;;5032449;28;20048;-74
2021/12/03 04:40:24;;;;;;;29.42;19.23;;;;;;;;;;5038097;28;20043;-74
2021/12/03 04:42:50;;;;;;;28.45;19.60;;;;;;;;;;5023686;28;20195;-74
2021/12/03 04:45:20;;;;;;;24.85;18.50;;;1.50;99.90;;;;;;5018730;28;20041;-73
2021/12/03 04:47:46;;;;;;;26.13;17.48;;;;;;;;;;5042883;28;20036;-74
2021/12/03 04:50:13;;;;;;;29.02;19.45;;;;;;;;;;5035868;28;20394;-74
2021/12/03 04:52:41;;;;;;;25.65;16.40;;;1.20;99.90;;;;;;5038459;28;20048;-74
2021/12/03 04:55:10;;;;;;;28.85;19.00;;;1.50;99.90;;;;;;5036064;28;20406;-74
2021/12/03 04:57:36;;;;;;;25.40;17.88;;;;;;;;;;5038254;28;20090;-74
2021/12/03 05:00:04;;;;;;;29.05;19.05;;;1.30;99.90;;;;;;5025393;28;20118;-74
2021/12/03 05:02:31;;;;;;;30.60;19.05;;;;;;;;;;5027697;28;20123;-74
2021/12/03 05:05:01;;;;;;;26.77;17.65;;;;;;;;;;5018319;28;20041;-73
2021/12/03 05:07:42;;;;;;;28.23;19.73;;;;;;;;;;5036812;28;20135;-74
2021/12/03 05:10:09;;;;;;;32.35;18.95;;;1.40;99.90;;;;;;5030850;28;20502;-73
2021/12/03 05:12:36;;;;;;;22.58;18.40;;;1.40;99.90;;;;;;5036609;28;20532;-74
2021/12/03 05:15:03;;;;;;;31.25;18.88;;;1.40;99.90;;;;;;5039215;28;20044;-74
2021/12/03 05:17:30;;;;;;;27.63;17.88;;;1.30;99.90;;;;;;5020829;28;20045;-74
2021/12/03 05:19:56;;;;;;;26.60;17.85;;;;;;;;;;5038122;28;20512;-73
2021/12/03 05:22:22;;;;;;;28.30;17.20;;;;;;;;;;5030139;28;20048;-73
2021/12/03 05:24:50;;;;;;;26.13;17.35;;;1.20;99.90;;;;;;5023492;28;20036;-74
2021/12/03 05:27:18;;;;;;;26.23;15.38;;;;;;;;;;5027388;28;20067;-74
2021/12/03 05:29:47;;;;;;;25.60;15.75;;;1.30;99.90;;;;;;5013441;28;20477;-74
2021/12/03 05:32:15;;;;;;;22.08;14.80;;;1.40;99.90;;;;;;5018901;28;20084;-73
2021/12/03 05:34:41;;;;;;;25.92;15.80;;;;;;;;;;5040922;28;20509;-74
2021/12/03 05:37:08;;;;;;;26.23;15.90;;;;;;;;;;5020498;28;20112;-73
2021/12/03 05:39:35;;;;;;;19.67;14.95;;;1.70;99.90;;;;;;5031779;28;20037;-73
2021/12/03 05:42:01;;;;;;;19.63;13.85;;;;;;;;;;5018390;28;20114;-73
2021/12/03 05:44:30;;;;;;;25.08;15.15;;;;;;;;;;5046016;28;20080;-74
2021/12/03 05:47:03;;;;;;;23.33;15.90;;;1.40;99.90;;;;;;5033159;28;20044;-73
2021/12/03 05:49:30;;;;;;;23.17;16.17;;;;;;;;;;5027097;28;20056;-74
2021/12/03 05:51:56;;;;;;;26.38;15.43;;;;;;;;;;5020289;28;20437;-73
2021/12/03 05:54:22;;;;;;;25.27;15.90;;;;;;;;;;5036994;28;20412;-74
2021/12/03 05:56:48;;;;;;;21.80;14.45;;;;;;;;;;5012394;28;20037;-74
2021/12/03 05:59:14;;;;;;;22.30;16.60;;;;;;;;;;5034693;28;20345;-74
2021/12/03 06:01:41;;;;;;;24.50;18.00;;;;;;;;;;5034261;28;20443;-73
2021/12/03 06:04:07;;;;;;;22.13;16.73;;;;;;;;;;5031426;28;20098;-74
2021/12/03 06:06:33;;;;;;;25.23;16.60;;;;;;;;;;5032054;28;20573;-73
2021/12/03 06:09:02;;;;;;;25.45;17.40;;;1.40;99.90;;;;;;5042095;28;20052;-74
2021/12/03 06:11:28;;;;;;;23.63;16.13;;;;;;;;;;5041578;28;20063;-74
2021/12/03 06:13:56;;;;;;;20.63;15.63;;;1.60;99.90;;;;;;5029446;28;20124;-74
2021/12/03 06:16:22;;;;;;;27.75;17.27;;;;;;;;;;5037157;28;20036;-74
2021/12/03 06:18:48;;;;;;;21.52;14.68;;;;;;;;;;5015187;28;20466;-74
2021/12/03 06:21:14;;;;;;;26.55;16.90;;;;;;;;;;5029550;28;20521;-74
2021/12/03 06:23:41;;;;;;;28.98;19.92;;;;;;;;;;5014953;28;20045;-74
2021/12/03 06:26:08;;;;;;;25.48;18.38;;;1.60;99.90;;;;;;5019380;28;20108;-74
2021/12/03 06:28:37;;;;;;;29.45;17.15;;;1.50;99.90;;;;;;5031341;28;20029;-73
2021/12/03 06:31:03;;;;;;;30.60;18.67;;;;;;;;;;5026339;28;20100;-73
2021/12/03 06:33:29;;;;;;;25.67;17.83;;;;;;;;;;5032260;28;20124;-74
2021/12/03 06:35:57;;;;;;;27.23;19.13;;;1.70;99.90;;;;;;5035516;28;20509;-73
2021/12/03 06:38:23;;;;;;;23.08;16.75;;;;;;;;;;5034784;28;20812;-74
2021/12/03 06:40:50;;;;;;;25.70;18.38;;;1.70;99.90;;;;;;5031844;28;20040;-74
2021/12/03 06:43:17;;;;;;;25.00;18.00;;;;;;;;;;5027358;28;20049;-74
2021/12/03 06:45:43;;;;;;;27.63;17.15;;;;;;;;;;5040342;28;20079;-74
2021/12/03 06:48:09;;;;;;;25.08;15.68;;;;;;;;;;5039614;28;20569;-73
2021/12/03 06:50:36;;;;;;;25.48;16.83;;;;;;;;;;5022813;28;20053;-73
2021/12/03 06:53:06;;;;;;;23.63;13.85;;;;;;;;;;5040458;28;20048;-74
2021/12/03 06:55:38;;;;;;;24.48;15.07;;;;;;;;;;5028426;28;20060;-74
2021/12/03 06:58:06;;;;;;;22.23;12.73;;;2.10;99.90;;;;;;5023260;28;20079;-74
2021/12/03 07:00:32;;;;;;;21.58;12.75;;;;;;;;;;5032937;28;20475;-74
2021/12/03 07:03:00;;;;;;;20.83;13.00;;;2.30;99.90;;;;;;5039794;28;20136;-74
2021/12/03 07:05:26;;;;;;;30.20;13.30;;;;;;;;;;5041384;28;20045;-74
2021/12/03 07:07:52;;;;;;;19.50;11.38;;;;;;;;;;5017239;28;20578;-74
2021/12/03 07:10:19;;;;;;;18.02;11.18;;;;;;;;;;5038925;28;20437;-74
2021/12/03 07:12:45;;;;;;;16.77;10.95;;;;;;;;;;5046462;28;20513;-74
2021/12/03 07:15:11;;;;;;;17.33;9.85;;;;;;;;;;5034472;28;20114;-74
2021/12/03 07:17:37;;;;;;;18.40;10.88;;;;;;;;;;5020763;28;20163;-74
2021/12/03 07:20:03;;;;;;;16.85;8.00;;;;;;;;;;5018651;28;20037;-74
2021/12/03 07:22:30;;;;;;;15.60;8.35;;;;;;;;;;5040844;28;20466;-73
2021/12/03 07:24:58;;;;;;;17.95;8.82;;;2.30;99.90;;;;;;5039838;28;20044;-73
2021/12/03 07:27:25;;;;;;;18.30;7.47;;;;;;;;;;5022009;28;20448;-74
2021/12/03 07:29:51;;;;;;;17.30;8.35;;;;;;;;;;5036476;28;20502;-72
2021/12/03 07:32:23;;;;;;;12.55;8.10;;;2.20;99.90;;;;;;5037457;28;20485;-74
2021/12/03 07:34:51;;;;;;;;;;;2.50;99.90;;;;;;5037208;28;20055;-73
2021/12/03 07:37:17;;;;;;;14.80;6.13;;;;;;;;;;5024809;28;19947;-74
2021/12/03 07:39:44;;;;;;;11.18;5.78;;;;;;;;;;5038727;28;20036;-73
2021/12/03 07:42:10;;;;;;;13.30;5.97;;;;;;;;;;5023081;28;20101;-74
2021/12/03 07:44:37;;;;;;;16.38;6.95;;;;;;;;;;5019183;28;20057;-73
2021/12/03 07:47:03;;;;;;;10.35;4.68;;;;;;;;;;5038099;28;20071;-74
2021/12/03 07:49:29;;;;;;;15.02;4.82;;;;;;;;;;5039679;28;20041;-73
2021/12/03 07:51:56;;;;;;;10.50;4.90;;;;;;;;;;5018214;28;20095;-74
2021/12/03 07:54:22;;;;;;;19.80;5.32;;;2.90;99.90;;;;;;5019613;28;20155;-74
2021/12/03 07:56:50;;;;;;;12.98;4.93;;;2.80;99.90;;;;;;5039393;28;20040;-74
2021/12/03 07:59:20;;;;;;;13.75;5.65;;;2.80;99.90;;;;;;5041831;28;20481;-74
2021/12/03 08:01:46;;;;;;;10.82;4.38;;;;;;;;;;5038542;28;20040;-74
2021/12/03 08:04:14;;;;;;;10.63;4.68;;;2.70;99.90;;;;;;5033288;28;20041;-74
2021/12/03 08:06:42;;;;;;;13.85;4.50;;;2.70;99.90;;;;;;5035601;28;20033;-74
2021/12/03 08:09:09;;;;;;;11.25;4.75;;;2.70;99.90;;;;;;5015709;28;20045;-74
2021/12/03 08:11:38;;;;;;;12.07;4.40;;;2.60;99.90;;;;;;5040604;28;20045;-74
2021/12/03 08:14:04;;;;;;;15.27;4.45;;;;;;;;;;5023776;28;20037;-74
2021/12/03 08:16:30;;;;;;;13.25;5.00;;;;;;;;;;5024223;28;20074;-74
2021/12/03 08:18:59;;;;;;;13.57;4.40;;;2.90;99.90;;;;;;5038152;28;20032;-75
2021/12/03 08:21:25;;;;;;;13.93;4.40;;;;;;;;;;5034472;28;20428;-74
2021/12/03 08:23:51;;;;;;;14.07;4.53;;;;;;;;;;5018346;28;20060;-74
2021/12/03 08:26:20;;;;;;;9.57;4.07;;;;;;;;;;5023385;28;20705;-74
2021/12/03 08:28:47;;;;;;;14.10;4.43;;;;;;;;;;5037155;28;20494;-73
2021/12/03 08:31:14;;;;;;;22.88;6.05;;;;;;;;;;5034939;28;20114;-74
2021/12/03 08:33:44;;;;;;;10.43;4.05;;;3.00;99.90;;;;;;5034425;28;20047;-74
2021/12/03 08:36:10;;;;;;;8.50;4.18;;;;;;;;;;5034072;28;20490;-74
2021/12/03 08:38:36;;;;;;;12.25;4.25;;;;;;;;;;5021515;28;20047;-74
2021/12/03 08:41:03;;;;;;;17.00;4.60;;;3.10;99.90;;;;;;5029411;28;20072;-74
2021/12/03 08:43:30;;;;;;;11.82;4.70;;;3.10;99.90;;;;;;5043223;28;20047;-73
2021/12/03 08:45:57;;;;;;;8.52;4.60;;;3.00;99.90;;;;;;5024477;28;20124;-74
2021/12/03 08:48:24;;;;;;;12.82;5.40;;;3.20;99.90;;;;;;5050029;28;20070;-74
2021/12/03 08:56:22;;;;;;;15.63;5.80;;;;;;;;;;4965834;28;20770;-74
2021/12/03 08:58:48;;;;;;;13.02;5.90;;;;;;;;;;4959045;28;20097;-74
2021/12/03 09:01:14;;;;;;;12.85;4.93;;;;;;;;;;4955993;28;20043;-74
2021/12/03 09:03:42;;;;;;;11.50;6.30;;;3.20;99.90;;;;;;4959018;28;20062;-74
2021/12/03 09:06:08;;;;;;;13.27;6.45;;;;;;;;;;4952790;28;20144;-74
2021/12/03 09:08:35;;;;;;;16.33;7.10;;;3.30;99.90;;;;;;4956050;28;20039;-75
2021/12/03 09:11:01;;;;;;;18.42;7.18;;;;;;;;;;4974829;28;20198;-74
2021/12/03 09:13:28;;;;;;;17.73;6.85;;;;;;;;;;4955638;28;20129;-74
2021/12/03 09:16:00;;;;;;;17.23;7.63;;;;;;;;;;4958223;28;20034;-74
2021/12/03 09:18:30;;;;;;;14.02;6.90;;;;;;;;;;4957968;28;20066;-74
2021/12/03 09:21:06;;;;;;;19.45;7.25;;;;;;;;;;4962608;28;20824;-74
2021/12/03 09:24:18;;;;;;;15.98;6.68;;;;;;;;;;4956286;28;20054;-74
2021/12/03 09:26:25;;;;;;;17.25;9.15;;;3.50;99.90;;;;;;4947953;28;20058;-74
2021/12/03 09:29:00;;;;;;;16.55;7.38;;;3.40;99.90;;;;;;4969767;28;20105;-74
2021/12/03 09:31:29;;;;;;;18.30;8.63;;;3.40;99.90;;;;;;5019046;28;20117;-74
2021/12/03 09:33:57;;;;;;;24.75;8.98;;;;;;;;;;5046848;28;20052;-74
2021/12/03 09:36:23;;;;;;;16.45;7.38;;;;;;;;;;5030910;28;20049;-74
2021/12/03 09:38:50;;;;;;;19.02;8.57;;;3.60;99.90;;;;;;5018412;28;20052;-74
2021/12/03 09:41:19;;;;;;;22.80;9.65;;;3.50;99.90;;;;;;5042679;28;20044;-74
2021/12/03 09:43:52;;;;;;;18.88;8.43;;;3.40;99.90;;;;;;5020640;28;20052;-74
2021/12/03 09:46:26;;;;;;;14.70;8.48;;;3.70;99.90;;;;;;5042898;28;20525;-74
2021/12/03 09:51:27;;;;;;;16.75;8.73;;;3.70;99.90;;;;;;5038863;28;20114;-73
2021/12/03 09:54:10;;;;;;;24.77;8.95;;;3.60;99.90;;;;;;5020687;28;20565;-74
2021/12/03 09:56:36;;;;;;;22.23;8.55;;;;;;;;;;5030615;28;20056;-74
2021/12/03 10:15:36;;;;;;;21.88;7.90;;;3.80;99.90;;;;;;5032136;28;20064;-74
2021/12/03 10:18:22;;;;;;;16.05;7.22;;;;;;;;;;5018180;28;20045;-73
2021/12/03 10:24:24;;;;;;;16.88;6.78;;;;;;;;;;4971227;28;20039;-73
2021/12/03 10:27:13;;;;;;;15.93;6.28;;;;;;;;;;4972414;28;20059;-74
2021/12/03 10:29:46;;;;;;;17.70;6.60;;;;;;;;;;4967586;28;20518;-74
2021/12/03 10:46:34;;;;;;;15.95;6.45;;;3.90;99.90;;;;;;4905149;29;20099;-74
2021/12/03 11:15:49;;;;;;;10.23;3.55;;;3.90;99.90;;;;;;4927484;29;20138;-73
2021/12/03 11:18:24;;;;;;;15.05;4.93;;;;;;;;;;4926828;29;20039;-73
2021/12/03 11:29:10;;;;;;;;;;;3.80;99.90;;;;;;5037965;28;20140;-74
2021/12/03 11:33:33;;;;;;;9.70;3.70;;;;;;;;;;5025060;28;19924;-73
2021/12/03 11:40:13;;;;;;;11.02;4.28;;;3.60;99.90;;;;;;5037104;28;20065;-73
2021/12/03 11:46:22;;;;;;;10.93;3.60;;;;;;;;;;4973662;28;20129;-74
2021/12/03 13:16:58;;;;;;;15.02;6.35;;;3.60;99.90;;;;;;4970367;28;20041;-73
2021/12/03 13:39:23;;;;;;;8.85;3.72;;;3.80;99.90;;;;;;5036004;28;20060;-75
2021/12/03 14:20:59;;;;;;;14.80;5.35;;;3.90;99.90;;;;;;4901853;28;20047;-74
2021/12/03 14:40:10;;;;;;;11.30;3.92;;;;;;;;;;4906991;29;20054;-74
2021/12/03 14:42:32;;;;;;;16.05;5.05;;;4.00;99.90;;;;;;4889587;29;20067;-74
2021/12/03 14:55:32;;;;;;;9.13;3.90;;;;;;;;;;4959109;28;20042;-74
2021/12/03 14:58:17;;;;;;;11.07;4.28;;;4.20;99.90;;;;;;4940117;28;20053;-74
2021/12/03 15:00:51;;;;;;;8.60;3.78;;;;;;;;;;4958317;28;20551;-75
2021/12/03 15:08:28;;;;;;;9.32;4.13;;;4.00;99.90;;;;;;5035451;28;20057;-75
2021/12/03 15:13:46;;;;;;;11.85;4.55;;;;;;;;;;5037302;28;20045;-74
2021/12/03 15:35:16;;;;;;;13.60;6.40;;;;;;;;;;4919555;29;20103;-74
2021/12/03 16:10:18;;;;;;;19.20;13.90;;;;;;;;;;5025623;28;20460;-75
2021/12/03 16:26:22;;;;;;;24.17;17.27;;;4.00;99.90;;;;;;4984334;28;20456;-75
2021/12/03 16:53:29;;;;;;;20.02;16.15;;;3.90;99.90;;;;;;5029651;28;20059;-75
2021/12/03 16:56:15;;;;;;;23.05;17.65;;;3.90;99.90;;;;;;5010711;28;20036;-75
2021/12/03 16:58:44;;;;;;;22.50;17.88;;;3.90;99.90;;;;;;5038666;28;20405;-74
2021/12/03 17:01:29;;;;;;;20.25;17.08;;;;;;;;;;5022655;28;20502;-75
2021/12/03 17:04:12;;;;;;;21.58;17.83;;;4.00;99.90;;;;;;5017611;28;20077;-75
2021/12/03 17:57:26;;;;;;;29.23;20.65;;;;;;;;;;4966219;28;20133;-74
2021/12/03 17:59:52;;;;;;;26.75;19.92;;;;;;;;;;4964682;28;20495;-75
2021/12/03 18:15:59;;;;;;;29.02;21.30;;;4.20;99.90;;;;;;4944360;28;20075;-75
2021/12/03 18:51:12;;;;;;;38.22;23.88;;;;;;;;;;4987132;28;20827;-74
2021/12/03 18:54:05;;;;;;;35.45;23.90;;;;;;;;;;4988027;28;20085;-76
2021/12/03 18:56:42;;;;;;;;;;;4.20;99.90;;;;;;4989526;28;20034;-75
2021/12/03 18:59:09;;;;;;;34.72;22.52;;;;;;;;;;4970139;28;19929;-75
2021/12/03 19:01:35;;;;;;;33.50;22.60;;;;;;;;;;4989253;28;20062;-75
2021/12/03 19:09:33;;;;;;;33.77;24.53;;;;;;;;;;4989430;28;20966;-75
2021/12/03 19:14:28;;;;;;;41.75;26.35;;;4.80;99.90;;;;;;4989206;28;20508;-75
2021/12/03 19:16:54;;;;;;;37.30;24.58;;;;;;;;;;4989503;28;20050;-75
2021/12/03 19:19:20;;;;;;;36.30;25.27;;;;;;;;;;4989370;28;20057;-75
2021/12/03 19:21:48;;;;;;;40.05;25.98;;;;;;;;;;4986411;28;20426;-75
2021/12/03 19:24:16;;;;;;;40.80;25.52;;;4.20;99.90;;;;;;4989604;28;20038;-75
2021/12/03 19:26:43;;;;;;;37.38;25.98;;;4.60;99.90;;;;;;5019981;28;20497;-73
2021/12/03 19:29:15;;;;;;;40.90;27.23;;;4.70;99.90;;;;;;5034240;28;20044;-75
2021/12/03 19:31:43;;;;;;;42.22;27.13;;;4.30;99.90;;;;;;5020892;28;20410;-74
2021/12/03 19:34:10;;;;;;;42.05;27.63;;;4.50;99.90;;;;;;5030233;28;20056;-74
2021/12/03 19:36:41;;;;;;;44.15;29.25;;;4.60;99.90;;;;;;5038533;28;20047;-75
2021/12/03 19:39:09;;;;;;;41.63;26.58;;;4.40;99.90;;;;;;5047411;28;20043;-75
2021/12/03 19:41:43;;;;;;;45.92;29.02;;;4.50;99.90;;;;;;5043717;28;20040;-75
2021/12/03 19:44:28;;;;;;;47.25;30.27;;;4.20;99.90;;;;;;5043325;28;20040;-75
2021/12/03 19:47:05;;;;;;;53.58;32.35;;;4.40;99.90;;;;;;5031899;28;20829;-75
2021/12/03 19:52:30;;;;;;;48.90;31.60;;;;;;;;;;5037389;28;20053;-75
2021/12/03 19:54:55;;;;;;;54.97;32.92;;;4.40;99.90;;;;;;5058514;28;20060;-74
2021/12/03 19:57:21;;;;;;;62.85;35.53;;;;;;;;;;5053927;28;20493;-75
2021/12/03 19:59:47;;;;;;;56.58;33.83;;;;;;;;;;5039017;28;20373;-75
2021/12/03 20:02:13;;;;;;;60.97;34.90;;;;;;;;;;5022650;28;20480;-74
2021/12/03 20:04:42;;;;;;;58.95;34.85;;;4.30;99.90;;;;;;5036707;28;20154;-75
2021/12/03 20:07:08;;;;;;;53.95;33.13;;;;;;;;;;5034608;28;20102;-75
2021/12/03 20:09:41;;;;;;;65.20;37.35;;;;;;;;;;5045996;28;20512;-74
2021/12/03 20:12:16;;;;;;;53.78;32.88;;;4.40;99.90;;;;;;5020949;28;20528;-75
2021/12/03 20:14:44;;;;;;;56.58;36.85;;;;;;;;;;5013693;28;20084;-75
2021/12/03 20:19:53;;;;;;;64.35;38.50;;;;;;;;;;5035332;28;20041;-75
2021/12/03 20:22:45;;;;;;;60.72;36.45;;;;;;;;;;5037133;28;20108;-75
2021/12/03 20:28:01;;;;;;;57.88;34.85;;;;;;;;;;5036868;28;21355;-74
2021/12/03 20:30:46;;;;;;;57.40;35.47;;;;;;;;;;5038058;28;20413;-75
2021/12/03 20:33:40;;;;;;;61.33;36.38;;;4.40;99.90;;;;;;5035559;28;20080;-75
2021/12/03 20:36:22;;;;;;;62.85;37.38;;;;;;;;;;5017697;28;20520;-74
2021/12/03 20:38:56;;;;;;;60.35;36.30;;;;;;;;;;5018848;28;20115;-75
2021/12/03 20:41:49;;;;;;;59.97;35.22;;;;;;;;;;5038399;28;20287;-75
2021/12/03 20:46:53;;;;;;;72.53;40.25;;;4.40;99.90;;;;;;5038510;28;20044;-74
2021/12/03 20:57:16;;;;;;;64.82;36.22;;;;;;;;;;5035867;28;20076;-74
2021/12/03 21:11:03;;;;;;;69.00;39.45;;;;;;;;;;5035912;28;20462;-75
2021/12/03 21:13:35;;;;;;;62.55;37.72;;;4.50;99.90;;;;;;5033844;28;20045;-74
2021/12/03 21:16:14;;;;;;;62.22;38.00;;;;;;;;;;5014333;28;20040;-74
2021/12/03 21:21:21;;;;;;;66.80;38.58;;;;;;;;;;5033738;28;20055;-75
2021/12/03 21:23:47;;;;;;;62.67;36.17;;;;;;;;;;5031712;28;20049;-74
2021/12/03 21:26:21;;;;;;;64.57;38.88;;;;;;;;;;5035216;28;20052;-74
2021/12/03 21:29:06;;;;;;;55.90;32.85;;;;;;;;;;5035023;28;20052;-74
2021/12/03 21:31:47;;;;;;;73.15;38.92;;;;;;;;;;5035897;28;20052;-75
2021/12/03 21:42:12;;;;;;;71.18;38.90;;;;;;;;;;5042411;28;20098;-75
2021/12/03 21:44:38;;;;;;;73.18;38.15;;;;;;;;;;5033984;28;20044;-74
2021/12/03 21:47:04;;;;;;;67.13;38.25;;;;;;;;;;5029354;28;20599;-74
2021/12/03 21:49:30;;;;;;;72.63;38.55;;;;;;;;;;5022824;28;20406;-74
2021/12/03 21:51:57;;;;;;;65.60;38.45;;;4.40;99.90;;;;;;5046714;28;20029;-74
2021/12/03 21:54:23;;;;;;;70.38;38.30;;;;;;;;;;5044826;28;20053;-75
2021/12/03 21:56:54;;;;;;;69.07;36.58;;;;;;;;;;5025420;28;20170;-75
2021/12/03 21:59:21;;;;;;;54.35;28.95;;;;;;;;;;5043303;28;20056;-73
2021/12/03 22:01:47;;;;;;;70.80;38.88;;;;;;;;;;5041639;28;20047;-74
2021/12/03 22:04:13;;;;;;;71.97;40.03;;;;;;;;;;5037269;28;20049;-73
2021/12/03 22:06:40;;;;;;;76.80;40.92;;;;;;;;;;5022541;28;20052;-73
2021/12/03 22:09:06;;;;;;;70.72;40.05;;;;;;;;;;5026755;28;20115;-76
2021/12/03 22:11:32;;;;;;;58.05;30.83;;;;;;;;;;5041083;28;20134;-74
2021/12/03 22:13:58;;;;;;;67.95;36.25;;;;;;;;;;5019309;28;20138;-74
2021/12/03 22:16:27;;;;;;;72.35;38.95;;;4.30;99.90;;;;;;5036895;28;20461;-74
2021/12/03 22:18:53;;;;;;;72.43;38.25;;;;;;;;;;5016704;28;20049;-74